Flight Track Log - Related Links

Times and Time Zones

All times are in EDT time to prevent confusion due to time zone crossing. See the UAL4679 flight status page for this flight to view local times or setup timezone preferences in your user account.

Time Position Orientation Groundspeed Altitude Reporting Facility
EDT Latitude Longitude Course Direction KTS MPH feet Rate Location/Type
Tue 07:53:41 AM 41.3939 -81.8814 275° West 168 193 1,800  Level Cleveland Center
Tue 07:54:29 AM 41.3975 -81.9339 275° West 196 226 3,000 2,147 Climbing Cleveland Center
Tue 07:55:30 AM 41.3942 -82.0336 267° West 262 302 5,700 2,710 Climbing Cleveland Center
Tue 07:56:33 AM 41.3786 -82.1161 256° West 257 296 8,600 2,244 Climbing Cleveland Center
Tue 07:57:33 AM 41.3628 -82.2072 257° West 257 296 10,300 1,300 Climbing Cleveland Center
Tue 07:58:33 AM 41.3444 -82.3172 258° West 276 318 11,200 1,300 Climbing Cleveland Center
Tue 07:59:33 AM 41.3239 -82.4300 256° West 315 362 12,900 1,800 Climbing Cleveland Center
Tue 08:00:33 AM 41.3239 -82.5436 270° West 313 360 14,800 1,700 Climbing Cleveland Center
Tue 08:01:33 AM 41.3708 -82.6142 312° West 277 319 16,300 1,600 Climbing Cleveland Center
Tue 08:02:33 AM 41.4278 -82.6822 318° Northwest 277 319 18,000 1,750 Climbing Cleveland Center
Tue 08:03:33 AM 41.4828 -82.7506 317° Northwest 272 313 19,800 1,750 Climbing Cleveland Center
Tue 08:04:33 AM 41.5378 -82.8192 317° Northwest 267 307 21,500 1,100 Climbing Cleveland Center
Tue 08:05:33 AM 41.5947 -82.8933 316° Northwest 274 315 22,000 250 Climbing Cleveland Center
Tue 08:06:33 AM 41.6658 -82.9847 316° Northwest 299 344 22,000  Level Cleveland Center
Tue 08:07:33 AM 41.7369 -83.0736 317° Northwest 328 377 22,000  Level Cleveland Center
Tue 08:08:33 AM 41.8100 -83.1683 316° Northwest 349 402 22,000  Level Cleveland Center
Tue 08:09:33 AM 41.8850 -83.2608 317° Northwest 354 407 22,000  Level Cleveland Center
Tue 08:10:33 AM 41.9578 -83.3558 316° Northwest 363 418 22,000  Level Cleveland Center
Tue 08:11:33 AM 42.0283 -83.4483 316° Northwest 368 423 22,000  Level Cleveland Center
Tue 08:12:33 AM 42.1031 -83.5414 317° Northwest 368 423 22,000  Level Cleveland Center
Tue 08:13:33 AM 42.1656 -83.6283 314° West 368 423 22,000  Level Cleveland Center
Tue 08:14:33 AM 42.2403 -83.7217 317° Northwest 368 423 22,000  Level Cleveland Center
Tue 08:15:33 AM 42.3106 -83.8122 316° Northwest 368 423 22,000  Level Cleveland Center
Tue 08:16:33 AM 42.3831 -83.9061 316° Northwest 368 423 22,000  Level Cleveland Center
Tue 08:17:33 AM 42.4467 -84.0133 309° West 362 417 22,000  Level Cleveland Center
Tue 08:18:33 AM 42.4908 -84.1369 296° West 362 417 22,000  Level Cleveland Center
Tue 08:19:33 AM 42.5369 -84.2608 297° West 367 422 22,000  Level Cleveland Center
Tue 08:21:53 AM 42.6392 -84.5369 297° West 364 419 22,000  Level Chicago Center
Tue 08:22:55 AM 42.6922 -84.6850 296° West 364 419 22,000  Level Chicago Center
Tue 08:23:57 AM 42.7375 -84.8100 296° West 368 423 22,000  Level Chicago Center
Tue 08:24:59 AM 42.7814 -84.9333 296° West 365 420 22,000  Level Chicago Center
Tue 08:26:01 AM 42.8264 -85.0578 296° West 368 423 22,000  Level Chicago Center
Tue 08:27:03 AM 42.8706 -85.1833 296° West 367 422 22,000  Level Chicago Center
Tue 08:28:05 AM 42.9150 -85.3083 296° West 368 423 22,000  Level Chicago Center
Tue 08:29:08 AM 42.9681 -85.4589 296° West 369 425 22,000  Level Chicago Center
Tue 08:30:09 AM 43.0117 -85.5844 295° West 370 426 22,000  Level Chicago Center
Tue 08:31:11 AM 43.0553 -85.7094 296° West 368 423 22,000  Level Chicago Center
Tue 08:32:14 AM 43.0989 -85.8344 296° West 369 425 22,000  Level Chicago Center
Tue 08:33:16 AM 43.1497 -85.9822 295° West 370 426 22,000  Level Chicago Center
Tue 08:34:18 AM 43.1683 -86.1183 281° West 380 437 22,000  Level Chicago Center
Tue 08:35:20 AM 43.1672 -86.2639 269° West 387 445 22,000 -581 Level Chicago Center
Tue 08:36:22 AM 43.1642 -86.4053 268° West 379 436 20,800 -1,306 Descending Chicago Center
Tue 08:37:24 AM 43.1619 -86.5483 269° West 378 435 19,300 -1,597 Descending Chicago Center
Tue 08:38:26 AM 43.1583 -86.7206 268° West 378 435 17,500 -1,645 Descending Chicago Center
Tue 08:39:28 AM 43.1553 -86.8597 268° West 365 420 15,900 -1,645 Descending Chicago Center
Tue 08:40:30 AM 43.1519 -86.9811 268° West 332 382 14,100 -1,306 Descending Chicago Center
Tue 08:41:32 AM 43.1381 -87.0875 260° West 293 337 13,200 -1,065 Descending Chicago Center
Tue 08:42:34 AM 43.1125 -87.1892 251° West 280 322 11,900 -1,366 Descending Chicago Center
Tue 08:43:35 AM 43.0917 -87.2833 253° West 262 302 10,400 -1,610 Descending Chicago Center
Tue 08:44:37 AM 43.0639 -87.3911 251° West 262 302 8,600 -1,548 Descending Chicago Center
Tue 08:45:39 AM 43.0433 -87.4847 253° West 257 296 7,200 -1,016 Descending Chicago Center
Tue 08:46:41 AM 43.0222 -87.5656 250° West 239 275 6,500 -1,258 Descending Chicago Center
Tue 08:47:43 AM 43.0022 -87.6494 252° West 207 238 4,600 -1,355 Descending Chicago Center
Tue 08:48:45 AM 43.0064 -87.7086 276° West 167 192 3,700 -774 Descending Chicago Center
Tue 08:49:47 AM 42.9778 -87.7500 227° Southwest 155 178 3,000 -581 Descending Chicago Center
Tue 08:50:49 AM 42.9681 -87.7917 252° West 125 144 2,500 -585 Descending Chicago Center
Tue 08:51:50 AM 42.9611 -87.8294 256° West 110 127 1,800 -488 Descending Chicago Center
Tue 08:52:52 AM 42.9511 -87.8708 252° West 110 127 1,500 -290 Descending Chicago Center
Tue 08:54:00 AM 42.9333 -87.8833 236° Southwest  Level FlightAware Approximate
Tue 09:01:00 AM 42.9469 -87.8971 236° Southwest  Level Estimated

Login

Don't have an account? Register now (free) for customized features, flight alerts, and more!